createdAt,value
2018-10-06T00:01:36.289Z,1.90
2018-10-06T00:04:05.858Z,1.30
2018-10-06T00:06:35.355Z,1.33
2018-10-06T00:09:05.482Z,2.23
2018-10-06T00:11:35.163Z,4.10
2018-10-06T00:14:05.070Z,5.30
2018-10-06T00:16:34.445Z,4.60
2018-10-06T00:19:03.858Z,4.80
2018-10-06T00:21:33.372Z,2.30
2018-10-06T00:24:02.701Z,2.53
2018-10-06T00:26:32.119Z,3.60
2018-10-06T00:29:01.570Z,2.20
2018-10-06T00:31:31.040Z,4.13
2018-10-06T00:34:00.469Z,2.23
2018-10-06T00:36:29.898Z,3.97
2018-10-06T00:38:59.535Z,4.93
2018-10-06T00:41:28.999Z,3.57
2018-10-06T00:43:58.405Z,5.90
2018-10-06T00:46:27.831Z,3.17
2018-10-06T00:48:57.239Z,3.47
2018-10-06T00:51:26.633Z,4.10
2018-10-06T00:53:56.014Z,7.20
2018-10-06T00:56:25.439Z,4.53
2018-10-06T00:58:54.979Z,4.80
2018-10-06T01:01:24.367Z,4.50
2018-10-06T01:03:53.985Z,2.30
2018-10-06T01:06:23.753Z,3.60
2018-10-06T01:08:53.422Z,4.83
2018-10-06T01:11:22.846Z,3.63
2018-10-06T01:13:52.314Z,4.57
2018-10-06T01:16:21.680Z,1.50
2018-10-06T01:18:51.133Z,12.23
2018-10-06T01:21:20.490Z,1.27
2018-10-06T01:23:49.855Z,2.33
2018-10-06T01:26:19.302Z,2.87
2018-10-06T01:28:48.879Z,3.73
2018-10-06T01:31:18.229Z,1.50
2018-10-06T01:33:47.630Z,2.20
2018-10-06T01:36:17.050Z,7.30
2018-10-06T01:38:46.659Z,1.20
2018-10-06T01:41:16.260Z,1.63
2018-10-06T01:43:45.619Z,1.30
2018-10-06T01:46:15.010Z,1.67
2018-10-06T01:48:44.431Z,4.60
2018-10-06T01:51:13.751Z,3.20
2018-10-06T01:53:43.258Z,1.73
2018-10-06T01:56:12.619Z,2.07
2018-10-06T01:58:42.081Z,1.67
2018-10-06T02:01:11.434Z,2.37
2018-10-06T02:03:40.874Z,4.90
2018-10-06T02:06:10.270Z,5.83
2018-10-06T02:08:39.680Z,2.60
2018-10-06T02:11:09.178Z,1.60
2018-10-06T02:13:38.559Z,1.03
2018-10-06T02:16:08.103Z,1.23
2018-10-06T02:18:37.478Z,1.07
2018-10-06T02:21:07.210Z,1.20
2018-10-06T02:23:36.615Z,0.87
2018-10-06T02:26:06.236Z,0.83
2018-10-06T02:28:35.593Z,0.97
2018-10-06T02:31:05.098Z,1.20
2018-10-06T02:33:35.053Z,0.97
2018-10-06T02:36:04.475Z,2.30
2018-10-06T02:38:33.863Z,1.07
2018-10-06T02:41:03.266Z,1.00
2018-10-06T02:43:32.679Z,2.30
2018-10-06T02:46:02.062Z,1.10
2018-10-06T02:48:31.474Z,1.30
2018-10-06T02:51:00.878Z,0.70
2018-10-06T02:53:30.324Z,1.70
2018-10-06T02:55:59.654Z,2.33
2018-10-06T02:58:29.078Z,5.10
2018-10-06T03:00:58.490Z,5.40
2018-10-06T03:03:27.842Z,2.87
2018-10-06T03:05:57.309Z,3.33
2018-10-06T03:08:26.733Z,1.90
2018-10-06T03:10:56.242Z,2.60
2018-10-06T03:13:25.714Z,4.30
2018-10-06T03:15:55.171Z,2.50
2018-10-06T03:18:24.609Z,7.00
2018-10-06T03:20:53.953Z,4.93
2018-10-06T03:23:23.321Z,4.50
2018-10-06T03:25:52.721Z,1.93
2018-10-06T03:28:22.112Z,6.43
2018-10-06T03:30:51.425Z,3.23
2018-10-06T03:33:20.879Z,3.27
2018-10-06T03:35:50.256Z,5.20
2018-10-06T03:38:19.589Z,3.47
2018-10-06T03:40:48.955Z,3.17
2018-10-06T03:43:18.386Z,2.80
2018-10-06T03:45:47.803Z,2.97
2018-10-06T03:48:17.158Z,4.10
2018-10-06T03:50:46.566Z,3.17
2018-10-06T03:53:15.967Z,10.63
2018-10-06T03:55:45.386Z,6.53
2018-10-06T03:58:14.803Z,7.97
2018-10-06T04:00:44.158Z,2.70
2018-10-06T04:03:13.514Z,3.90
2018-10-06T04:05:42.989Z,2.43
2018-10-06T04:08:12.551Z,3.30
2018-10-06T04:10:41.990Z,2.20
2018-10-06T04:13:11.458Z,1.80
2018-10-06T04:15:40.938Z,1.20
2018-10-06T04:18:10.294Z,1.10
2018-10-06T04:20:39.766Z,0.93
2018-10-06T04:23:09.219Z,1.23
2018-10-06T04:25:38.638Z,3.50
2018-10-06T04:28:08.030Z,2.60
2018-10-06T04:30:37.502Z,5.93
2018-10-06T04:33:07.043Z,11.10
2018-10-06T04:35:36.456Z,7.97
2018-10-06T04:38:05.942Z,6.07
2018-10-06T04:40:35.446Z,3.50
2018-10-06T04:43:04.893Z,1.40
2018-10-06T04:45:34.251Z,2.23
2018-10-06T04:48:03.726Z,3.47
2018-10-06T04:50:33.174Z,4.50
2018-10-06T04:53:02.599Z,1.50
2018-10-06T04:55:32.004Z,2.80
2018-10-06T04:58:01.405Z,1.00
2018-10-06T05:00:30.834Z,1.00
2018-10-06T05:03:00.219Z,2.53
2018-10-06T05:05:29.702Z,2.53
2018-10-06T05:07:59.135Z,2.73
2018-10-06T05:10:28.578Z,1.70
2018-10-06T05:12:58.045Z,1.90
2018-10-06T05:15:27.458Z,1.63
2018-10-06T05:17:56.848Z,1.73
2018-10-06T05:20:26.215Z,1.07
2018-10-06T05:22:55.660Z,1.30
2018-10-06T05:25:25.038Z,0.77
2018-10-06T05:27:54.493Z,1.40
2018-10-06T05:30:23.830Z,3.80
2018-10-06T05:32:53.219Z,4.20
2018-10-06T05:35:22.657Z,2.07
2018-10-06T05:37:52.017Z,1.97
2018-10-06T05:40:21.469Z,2.10
2018-10-06T05:42:50.853Z,1.13
2018-10-06T05:45:20.221Z,1.47
2018-10-06T05:47:50.188Z,2.60
2018-10-06T05:50:19.557Z,2.43
2018-10-06T05:52:49.046Z,1.47
2018-10-06T05:55:18.436Z,4.10
2018-10-06T05:57:47.898Z,2.30
2018-10-06T06:00:17.350Z,1.93
2018-10-06T06:02:46.694Z,2.80
2018-10-06T06:05:17.046Z,1.73
2018-10-06T06:07:46.594Z,1.90
2018-10-06T06:10:16.077Z,2.40
2018-10-06T06:12:45.513Z,1.73
2018-10-06T06:15:14.848Z,2.67
2018-10-06T06:17:44.330Z,3.57
2018-10-06T06:20:13.759Z,1.60
2018-10-06T06:22:43.170Z,3.10
2018-10-06T06:25:12.606Z,2.37
2018-10-06T06:27:41.951Z,2.77
2018-10-06T06:30:11.396Z,5.97
2018-10-06T06:32:40.830Z,4.83
2018-10-06T06:35:10.246Z,8.80
2018-10-06T06:37:39.718Z,4.40
2018-10-06T06:40:09.069Z,4.40
2018-10-06T06:42:38.466Z,5.80
2018-10-06T06:45:07.947Z,6.07
2018-10-06T06:47:37.426Z,4.30
2018-10-06T06:50:06.800Z,9.40
2018-10-06T06:52:36.398Z,7.10
2018-10-06T06:55:06.350Z,7.43
2018-10-06T06:57:35.669Z,12.70
2018-10-06T07:00:05.542Z,8.17
2018-10-06T07:02:34.983Z,4.97
2018-10-06T07:05:04.386Z,7.43
2018-10-06T07:07:33.755Z,6.63
2018-10-06T07:10:03.139Z,7.13
2018-10-06T07:12:32.585Z,3.90
2018-10-06T07:15:01.930Z,8.80
2018-10-06T07:17:31.423Z,8.70
2018-10-06T07:20:00.795Z,10.37
2018-10-06T07:22:30.239Z,9.33
2018-10-06T07:24:59.599Z,8.53
2018-10-06T07:27:29.168Z,5.33
2018-10-06T07:29:58.523Z,9.17
2018-10-06T07:32:27.902Z,11.60
2018-10-06T07:34:57.781Z,19.00
2018-10-06T07:37:27.154Z,11.33
2018-10-06T07:39:56.566Z,6.70
2018-10-06T07:42:25.946Z,10.17
2018-10-06T07:44:55.434Z,11.37
2018-10-06T07:47:24.843Z,10.93
2018-10-06T07:49:54.293Z,12.30
2018-10-06T07:52:23.854Z,11.63
2018-10-06T07:54:53.432Z,11.43
2018-10-06T07:57:22.860Z,7.57
2018-10-06T07:59:52.313Z,8.43
2018-10-06T08:02:21.850Z,10.27
2018-10-06T08:04:51.335Z,13.07
2018-10-06T08:07:20.750Z,21.63
2018-10-06T08:09:50.160Z,10.47
2018-10-06T08:12:19.756Z,16.93
2018-10-06T08:14:49.499Z,12.20
2018-10-06T08:17:19.178Z,7.30
2018-10-06T08:19:48.816Z,10.73
2018-10-06T08:22:18.213Z,16.10
2018-10-06T08:24:47.598Z,10.93
2018-10-06T08:27:16.944Z,10.37
2018-10-06T08:29:46.387Z,14.43
2018-10-06T08:32:15.731Z,10.33
2018-10-06T08:34:45.201Z,10.37
2018-10-06T08:37:14.719Z,7.27
2018-10-06T08:39:44.213Z,9.03
2018-10-06T08:42:13.637Z,11.50
2018-10-06T08:44:42.978Z,18.33
2018-10-06T08:47:12.396Z,14.20
2018-10-06T08:49:41.885Z,10.27
2018-10-06T08:52:11.420Z,14.87
2018-10-06T08:54:40.743Z,14.67
2018-10-06T08:57:10.223Z,16.30
2018-10-06T08:59:39.597Z,14.03
2018-10-06T09:02:08.976Z,14.40
2018-10-06T09:04:38.446Z,16.23
2018-10-06T09:07:07.835Z,9.00
2018-10-06T09:09:37.264Z,11.97
2018-10-06T09:12:06.783Z,9.83
2018-10-06T09:14:36.182Z,10.83
2018-10-06T09:17:05.695Z,10.37
2018-10-06T09:19:35.035Z,12.20
2018-10-06T09:22:04.422Z,17.50
2018-10-06T09:24:33.823Z,9.47
2018-10-06T09:27:03.310Z,6.80
2018-10-06T09:29:32.838Z,11.80
2018-10-06T09:32:02.323Z,11.97
2018-10-06T09:34:33.774Z,17.30
2018-10-06T09:37:03.327Z,11.20
2018-10-06T09:39:32.763Z,8.13
2018-10-06T09:42:02.223Z,14.50
2018-10-06T09:44:31.582Z,8.07
2018-10-06T09:47:01.030Z,8.80
2018-10-06T09:49:30.473Z,14.77
2018-10-06T09:51:59.812Z,12.73
2018-10-06T09:54:29.190Z,8.77
2018-10-06T09:56:58.567Z,12.17
2018-10-06T09:59:27.992Z,13.40
2018-10-06T10:02:02.690Z,21.70
2018-10-06T10:04:32.126Z,7.40
2018-10-06T10:07:02.070Z,16.17
2018-10-06T10:09:31.447Z,9.67
2018-10-06T10:12:00.857Z,15.10
2018-10-06T10:14:30.254Z,6.33
2018-10-06T10:17:00.767Z,14.23
2018-10-06T10:19:30.180Z,14.53
2018-10-06T10:21:59.721Z,11.50
2018-10-06T10:24:29.004Z,7.10
2018-10-06T10:26:58.373Z,13.90
2018-10-06T10:29:27.812Z,11.83
2018-10-06T10:31:57.641Z,13.90
2018-10-06T10:34:27.059Z,6.00
2018-10-06T10:36:56.551Z,19.60
2018-10-06T10:39:26.036Z,9.80
2018-10-06T10:41:55.263Z,15.50
2018-10-06T10:44:24.710Z,11.53
2018-10-06T10:46:54.061Z,6.10
2018-10-06T10:49:23.431Z,12.67
2018-10-06T10:51:52.856Z,15.30
2018-10-06T10:54:22.268Z,14.73
2018-10-06T10:56:51.665Z,9.10
2018-10-06T10:59:21.103Z,22.60
2018-10-06T11:01:50.545Z,12.93
2018-10-06T11:04:19.968Z,10.13
2018-10-06T11:06:49.434Z,14.40
2018-10-06T11:09:18.875Z,10.27
2018-10-06T11:11:48.258Z,13.87
2018-10-06T11:14:18.394Z,15.43
2018-10-06T11:16:47.839Z,15.53
2018-10-06T11:19:17.318Z,16.63
2018-10-06T11:21:46.670Z,11.60
2018-10-06T11:24:16.053Z,12.87
2018-10-06T11:26:45.461Z,7.40
2018-10-06T11:29:14.840Z,14.17
2018-10-06T11:31:44.228Z,13.80
2018-10-06T11:34:13.714Z,13.33
2018-10-06T11:36:43.133Z,17.00
2018-10-06T11:39:12.549Z,23.07
2018-10-06T11:41:42.538Z,7.70
2018-10-06T11:44:11.913Z,16.20
2018-10-06T11:46:41.262Z,12.10
2018-10-06T11:49:10.689Z,8.50
2018-10-06T11:51:40.017Z,11.30
2018-10-06T11:54:09.523Z,8.43
2018-10-06T11:56:38.986Z,20.93
2018-10-06T11:59:08.379Z,12.00
2018-10-06T12:01:37.791Z,15.47
2018-10-06T12:04:07.303Z,12.63
2018-10-06T12:06:36.750Z,13.67
2018-10-06T12:09:08.312Z,42.77
2018-10-06T12:11:38.110Z,10.00
2018-10-06T12:14:07.742Z,13.40
2018-10-06T12:16:37.290Z,14.07
2018-10-06T12:19:06.811Z,10.40
2018-10-06T12:21:36.193Z,13.67
2018-10-06T12:24:05.683Z,11.10
2018-10-06T12:26:35.143Z,13.50
2018-10-06T12:29:04.615Z,11.93
2018-10-06T12:31:33.990Z,10.87
2018-10-06T12:34:03.566Z,19.93
2018-10-06T12:36:33.182Z,7.67
2018-10-06T12:39:02.698Z,5.93
2018-10-06T12:41:32.090Z,9.90
2018-10-06T12:44:01.480Z,16.93
2018-10-06T12:46:30.990Z,12.73
2018-10-06T12:49:00.371Z,9.17
2018-10-06T12:51:29.993Z,11.10
2018-10-06T12:53:59.335Z,11.77
2018-10-06T12:56:28.824Z,8.23
2018-10-06T12:58:58.177Z,10.17
2018-10-06T13:01:27.610Z,9.03
2018-10-06T13:03:56.978Z,5.10
2018-10-06T13:06:26.382Z,5.50
2018-10-06T13:08:55.835Z,5.70
2018-10-06T13:11:25.292Z,7.33
2018-10-06T13:13:54.755Z,11.60
2018-10-06T13:16:24.256Z,8.37
2018-10-06T13:18:53.755Z,8.90
2018-10-06T13:21:23.238Z,7.23
2018-10-06T13:23:52.649Z,9.77
2018-10-06T13:26:22.055Z,7.43
2018-10-06T13:28:51.428Z,5.87
2018-10-06T13:31:20.838Z,7.90
2018-10-06T13:33:50.242Z,10.53
2018-10-06T13:36:19.703Z,9.07
2018-10-06T13:38:49.146Z,9.17
2018-10-06T13:41:18.558Z,12.60
2018-10-06T13:43:47.927Z,9.83
2018-10-06T13:46:17.431Z,6.30
2018-10-06T13:48:46.930Z,8.40
2018-10-06T13:51:16.380Z,10.70
2018-10-06T13:53:45.775Z,8.73
2018-10-06T13:56:15.854Z,10.47
2018-10-06T13:58:45.245Z,9.00
2018-10-06T14:01:14.690Z,7.03
2018-10-06T14:03:44.159Z,9.90
2018-10-06T14:06:13.551Z,6.57
2018-10-06T14:08:42.911Z,4.73
2018-10-06T14:11:12.362Z,7.40
2018-10-06T14:13:41.798Z,12.73
2018-10-06T14:16:11.298Z,10.03
2018-10-06T14:18:40.734Z,8.30
2018-10-06T14:21:10.153Z,6.23
2018-10-06T14:23:39.557Z,10.77
2018-10-06T14:26:09.366Z,9.53
2018-10-06T14:28:38.799Z,6.40
2018-10-06T14:31:08.234Z,8.60
2018-10-06T14:33:37.742Z,3.80
2018-10-06T14:36:07.190Z,8.80
2018-10-06T14:38:36.616Z,7.27
2018-10-06T14:41:06.030Z,9.73
2018-10-06T14:43:35.450Z,5.60
2018-10-06T14:46:04.945Z,11.20
2018-10-06T14:48:34.453Z,10.57
2018-10-06T14:51:03.970Z,9.27
2018-10-06T14:53:33.454Z,5.50
2018-10-06T14:56:02.855Z,4.30
2018-10-06T14:58:32.230Z,6.13
2018-10-06T15:01:01.599Z,7.43
2018-10-06T15:03:31.195Z,5.07
2018-10-06T15:06:00.558Z,7.00
2018-10-06T15:08:30.026Z,8.97
2018-10-06T15:10:59.403Z,3.93
2018-10-06T15:13:28.815Z,11.00
2018-10-06T15:15:58.314Z,6.00
2018-10-06T15:18:27.784Z,13.70
2018-10-06T15:20:57.203Z,6.33
2018-10-06T15:23:26.582Z,5.70
2018-10-06T15:25:56.714Z,8.53
2018-10-06T15:28:26.255Z,4.80
2018-10-06T15:30:55.785Z,5.93
2018-10-06T15:33:25.242Z,16.77
2018-10-06T15:35:54.762Z,8.00
2018-10-06T15:38:24.135Z,7.30
2018-10-06T15:40:53.750Z,5.50
2018-10-06T15:43:23.165Z,6.10
2018-10-06T15:45:52.609Z,3.37
2018-10-06T15:48:22.005Z,4.50
2018-10-06T15:50:51.469Z,3.53
2018-10-06T15:53:20.887Z,7.93
2018-10-06T15:55:50.399Z,3.80
2018-10-06T15:58:19.794Z,4.53
2018-10-06T16:00:49.238Z,2.70
2018-10-06T16:03:18.791Z,2.40
2018-10-06T16:05:48.322Z,9.47
2018-10-06T16:08:17.742Z,3.03
2018-10-06T16:10:47.141Z,2.23
2018-10-06T16:13:16.626Z,2.60
2018-10-06T16:15:46.248Z,3.27
2018-10-06T16:18:15.630Z,8.70
2018-10-06T16:20:45.196Z,2.90
2018-10-06T16:23:14.553Z,2.43
2018-10-06T16:25:44.087Z,4.60
2018-10-06T16:28:13.587Z,3.53
2018-10-06T16:30:42.971Z,5.50
2018-10-06T16:33:12.357Z,3.10
2018-10-06T16:35:41.865Z,7.23
2018-10-06T16:38:11.380Z,3.70
2018-10-06T16:40:40.758Z,3.30
2018-10-06T16:43:10.150Z,2.93
2018-10-06T16:45:39.683Z,4.00
2018-10-06T16:48:09.075Z,6.20
2018-10-06T16:50:38.685Z,3.33
2018-10-06T16:53:08.189Z,3.10
2018-10-06T16:55:37.619Z,9.43
2018-10-06T16:58:07.204Z,8.23
2018-10-06T17:00:36.747Z,4.47
2018-10-06T17:03:06.108Z,4.43
2018-10-06T17:05:35.548Z,3.23
2018-10-06T17:08:05.093Z,4.40
2018-10-06T17:10:34.530Z,2.67
2018-10-06T17:13:03.970Z,3.60
2018-10-06T17:15:33.379Z,4.63
2018-10-06T17:18:02.936Z,5.80
2018-10-06T17:20:32.459Z,4.40
2018-10-06T17:23:01.863Z,8.47
2018-10-06T17:25:31.231Z,5.83
2018-10-06T17:28:00.715Z,4.43
2018-10-06T17:30:30.205Z,5.37
2018-10-06T17:32:59.726Z,3.97
2018-10-06T17:35:29.156Z,14.33
2018-10-06T17:37:58.619Z,6.43
2018-10-06T17:40:28.014Z,18.63
2018-10-06T17:42:57.339Z,3.50
2018-10-06T17:45:26.902Z,3.33
2018-10-06T17:47:56.318Z,3.63
2018-10-06T17:50:25.773Z,6.70
2018-10-06T17:52:55.355Z,2.77
2018-10-06T17:55:24.782Z,4.07
2018-10-06T17:57:54.138Z,2.87
2018-10-06T18:00:23.739Z,3.73
2018-10-06T18:02:53.697Z,5.80
2018-10-06T18:05:23.085Z,7.97
2018-10-06T18:07:52.567Z,6.73
2018-10-06T18:10:22.004Z,3.80
2018-10-06T18:12:51.401Z,5.07
2018-10-06T18:15:20.931Z,3.90
2018-10-06T18:17:50.762Z,5.83
2018-10-06T18:20:20.271Z,10.00
2018-10-06T18:22:49.653Z,3.20
2018-10-06T18:25:19.494Z,7.27
2018-10-06T18:27:48.909Z,6.10
2018-10-06T18:30:18.316Z,7.80
2018-10-06T18:32:47.790Z,6.93
2018-10-06T18:35:17.264Z,8.20
2018-10-06T18:37:46.769Z,5.10
2018-10-06T18:40:16.233Z,8.90
2018-10-06T18:42:45.769Z,4.93
2018-10-06T18:45:15.266Z,10.73
2018-10-06T18:47:44.710Z,8.37
2018-10-06T18:50:14.142Z,8.60
2018-10-06T18:52:43.527Z,8.77
2018-10-06T18:55:13.028Z,8.70
2018-10-06T18:57:42.532Z,9.00
2018-10-06T19:00:11.942Z,17.13
2018-10-06T19:02:41.286Z,11.70
2018-10-06T19:05:10.767Z,11.33
2018-10-06T19:07:40.167Z,9.13
2018-10-06T19:10:09.572Z,6.87
2018-10-06T19:12:38.934Z,10.23
2018-10-06T19:15:08.360Z,14.70
2018-10-06T19:17:37.754Z,14.47
2018-10-06T19:20:07.586Z,9.40
2018-10-06T19:22:37.063Z,12.80
2018-10-06T19:25:06.483Z,12.90
2018-10-06T19:27:35.887Z,11.03
2018-10-06T19:30:05.342Z,15.87
2018-10-06T19:32:34.826Z,24.23
2018-10-06T19:35:04.378Z,29.37
2018-10-06T19:37:34.018Z,15.50
2018-10-06T19:40:03.465Z,15.03
2018-10-06T19:42:32.914Z,15.53
2018-10-06T19:45:02.298Z,27.53
2018-10-06T19:47:31.726Z,21.87
2018-10-06T19:50:01.263Z,14.97
2018-10-06T19:52:30.698Z,25.90
2018-10-06T19:55:00.151Z,20.93
2018-10-06T19:57:29.685Z,20.93
2018-10-06T19:59:59.093Z,22.50
2018-10-06T20:02:28.508Z,19.73
2018-10-06T20:04:57.921Z,18.23
2018-10-06T20:07:27.315Z,24.23
2018-10-06T20:09:56.767Z,16.20
2018-10-06T20:12:26.181Z,14.83
2018-10-06T20:14:55.586Z,14.47
2018-10-06T20:17:25.045Z,13.20
2018-10-06T20:19:54.502Z,15.50
2018-10-06T20:22:23.877Z,8.37
2018-10-06T20:24:53.344Z,12.90
2018-10-06T20:27:22.707Z,18.00
2018-10-06T20:29:52.086Z,13.03
2018-10-06T20:32:21.509Z,11.47
2018-10-06T20:34:50.893Z,9.50
2018-10-06T20:37:20.466Z,16.30
2018-10-06T20:39:49.802Z,11.33
2018-10-06T20:42:19.378Z,13.20
2018-10-06T20:44:48.764Z,12.03
2018-10-06T20:47:18.227Z,21.73
2018-10-06T20:49:47.914Z,8.43
2018-10-06T20:52:17.249Z,10.10
2018-10-06T20:54:46.753Z,11.33
2018-10-06T20:57:16.134Z,10.10
2018-10-06T20:59:45.619Z,11.20
2018-10-06T21:02:15.035Z,11.93
2018-10-06T21:04:45.219Z,13.00
2018-10-06T21:07:14.674Z,9.87
2018-10-06T21:09:44.060Z,10.80
2018-10-06T21:12:13.540Z,13.00
2018-10-06T21:14:43.014Z,13.10
2018-10-06T21:17:12.458Z,18.23
2018-10-06T21:19:41.887Z,16.70
2018-10-06T21:22:11.338Z,12.30
2018-10-06T21:24:40.809Z,16.03
2018-10-06T21:27:10.330Z,13.27
2018-10-06T21:29:39.902Z,9.53
2018-10-06T21:32:09.456Z,10.47
2018-10-06T21:34:38.970Z,19.07
2018-10-06T21:37:08.649Z,12.40
2018-10-06T21:39:38.095Z,9.17
2018-10-06T21:42:07.510Z,12.20
2018-10-06T21:44:36.899Z,17.00
2018-10-06T21:47:07.030Z,18.20
2018-10-06T21:49:36.570Z,14.83
2018-10-06T21:52:05.998Z,13.03
2018-10-06T21:54:35.897Z,16.73
2018-10-06T21:57:05.423Z,24.10
2018-10-06T21:59:34.839Z,16.50
2018-10-06T22:02:04.333Z,13.70
2018-10-06T22:04:34.462Z,13.30
2018-10-06T22:07:03.865Z,12.53
2018-10-06T22:09:33.286Z,8.00
2018-10-06T22:12:02.660Z,17.07
2018-10-06T22:14:32.138Z,12.33
2018-10-06T22:17:01.578Z,13.03
2018-10-06T22:19:30.962Z,11.70
2018-10-06T22:22:00.423Z,13.37
2018-10-06T22:24:29.838Z,15.70
2018-10-06T22:26:59.247Z,14.70
2018-10-06T22:29:28.836Z,14.80
2018-10-06T22:31:58.210Z,15.10
2018-10-06T22:34:27.727Z,14.70
2018-10-06T22:36:57.182Z,19.33
2018-10-06T22:39:26.638Z,19.13
2018-10-06T22:41:56.107Z,16.03
2018-10-06T22:44:25.569Z,17.03
2018-10-06T22:46:54.947Z,13.60
2018-10-06T22:49:24.434Z,17.40
2018-10-06T22:51:54.030Z,20.77
2018-10-06T22:54:23.497Z,22.53
2018-10-06T22:56:52.931Z,18.10
2018-10-06T22:59:22.392Z,14.90
2018-10-06T23:01:51.816Z,18.60
2018-10-06T23:04:21.264Z,18.70
2018-10-06T23:06:50.619Z,17.70
2018-10-06T23:09:20.131Z,20.57
2018-10-06T23:11:49.599Z,23.47
2018-10-06T23:14:19.014Z,25.83
2018-10-06T23:16:48.434Z,19.50
2018-10-06T23:19:17.841Z,19.53
2018-10-06T23:21:47.277Z,30.47
2018-10-06T23:24:16.747Z,23.20
2018-10-06T23:26:46.143Z,29.10
2018-10-06T23:29:15.532Z,20.17
2018-10-06T23:31:45.054Z,27.83
2018-10-06T23:34:14.411Z,26.23
2018-10-06T23:36:43.854Z,37.63
2018-10-06T23:39:13.335Z,26.27
2018-10-06T23:41:42.791Z,33.53
2018-10-06T23:44:12.170Z,29.47
2018-10-06T23:46:41.662Z,38.23
2018-10-06T23:49:11.082Z,27.70
2018-10-06T23:51:40.582Z,27.43
2018-10-06T23:54:10.297Z,40.10
2018-10-06T23:56:39.691Z,49.97
2018-10-06T23:59:09.102Z,34.83
